sensor_id;sensor_type;location;lat;lon;timestamp;P1;durP1;ratioP1;P2;durP2;ratioP2
7881;SDS011;3986;41.884;23.466;2022-10-22T15:40:10;107.55;;;70.22;;
7881;SDS011;3986;41.884;23.466;2022-10-22T15:42:37;90.97;;;81.85;;
7881;SDS011;3986;41.884;23.466;2022-10-22T15:45:04;82.30;;;59.70;;
7881;SDS011;3986;41.884;23.466;2022-10-22T15:47:33;62.13;;;55.92;;
7881;SDS011;3986;41.884;23.466;2022-10-22T15:50:00;63.65;;;52.40;;
7881;SDS011;3986;41.884;23.466;2022-10-22T15:52:26;97.50;;;58.70;;
7881;SDS011;3986;41.884;23.466;2022-10-22T15:54:53;85.47;;;60.65;;
7881;SDS011;3986;41.884;23.466;2022-10-22T15:57:21;83.55;;;58.20;;
7881;SDS011;3986;41.884;23.466;2022-10-22T15:59:48;106.28;;;63.85;;
7881;SDS011;3986;41.884;23.466;2022-10-22T16:02:16;86.95;;;65.38;;
7881;SDS011;3986;41.884;23.466;2022-10-22T16:04:42;87.10;;;68.40;;
7881;SDS011;3986;41.884;23.466;2022-10-22T16:07:09;94.55;;;83.47;;
7881;SDS011;3986;41.884;23.466;2022-10-22T16:09:36;97.03;;;86.60;;
7881;SDS011;3986;41.884;23.466;2022-10-22T16:12:03;96.18;;;73.38;;
7881;SDS011;3986;41.884;23.466;2022-10-22T16:14:31;91.57;;;77.53;;
7881;SDS011;3986;41.884;23.466;2022-10-22T16:16:58;113.75;;;101.53;;
7881;SDS011;3986;41.884;23.466;2022-10-22T16:19:26;179.32;;;128.25;;
7881;SDS011;3986;41.884;23.466;2022-10-22T16:21:53;149.43;;;115.03;;
7881;SDS011;3986;41.884;23.466;2022-10-22T16:24:21;263.75;;;148.02;;
7881;SDS011;3986;41.884;23.466;2022-10-22T16:26:48;197.48;;;153.10;;
7881;SDS011;3986;41.884;23.466;2022-10-22T16:29:16;186.55;;;131.35;;
7881;SDS011;3986;41.884;23.466;2022-10-22T16:31:44;160.10;;;127.53;;
7881;SDS011;3986;41.884;23.466;2022-10-22T16:34:11;164.23;;;125.88;;
7881;SDS011;3986;41.884;23.466;2022-10-22T16:36:40;191.00;;;135.63;;
7881;SDS011;3986;41.884;23.466;2022-10-22T16:39:08;157.07;;;140.13;;
7881;SDS011;3986;41.884;23.466;2022-10-22T16:41:35;161.98;;;144.50;;
7881;SDS011;3986;41.884;23.466;2022-10-22T16:44:02;162.55;;;138.77;;
7881;SDS011;3986;41.884;23.466;2022-10-22T16:46:32;163.00;;;132.77;;
7881;SDS011;3986;41.884;23.466;2022-10-22T16:49:03;179.77;;;137.05;;
7881;SDS011;3986;41.884;23.466;2022-10-22T16:51:31;179.77;;;141.35;;
7881;SDS011;3986;41.884;23.466;2022-10-22T16:53:58;151.95;;;136.60;;
7881;SDS011;3986;41.884;23.466;2022-10-22T16:56:25;165.77;;;148.15;;
7881;SDS011;3986;41.884;23.466;2022-10-22T16:58:53;245.95;;;144.93;;
7881;SDS011;3986;41.884;23.466;2022-10-22T17:01:22;149.40;;;126.03;;
7881;SDS011;3986;41.884;23.466;2022-10-22T17:03:51;143.13;;;127.85;;
7881;SDS011;3986;41.884;23.466;2022-10-22T17:06:20;216.48;;;145.65;;
7881;SDS011;3986;41.884;23.466;2022-10-22T17:08:48;171.50;;;153.07;;
7881;SDS011;3986;41.884;23.466;2022-10-22T17:11:16;289.80;;;179.67;;
7881;SDS011;3986;41.884;23.466;2022-10-22T17:13:45;184.73;;;164.77;;
7881;SDS011;3986;41.884;23.466;2022-10-22T17:16:15;255.63;;;209.93;;
7881;SDS011;3986;41.884;23.466;2022-10-22T17:18:43;224.60;;;171.63;;
7881;SDS011;3986;41.884;23.466;2022-10-22T17:21:12;278.73;;;204.82;;
7881;SDS011;3986;41.884;23.466;2022-10-22T17:23:40;252.80;;;209.77;;
7881;SDS011;3986;41.884;23.466;2022-10-22T17:26:11;280.13;;;220.43;;
7881;SDS011;3986;41.884;23.466;2022-10-22T17:28:40;249.13;;;203.90;;
7881;SDS011;3986;41.884;23.466;2022-10-22T17:31:07;271.90;;;214.30;;
7881;SDS011;3986;41.884;23.466;2022-10-22T17:33:36;220.00;;;195.95;;
7881;SDS011;3986;41.884;23.466;2022-10-22T17:36:04;236.30;;;210.18;;
7881;SDS011;3986;41.884;23.466;2022-10-22T17:38:35;215.13;;;186.93;;
7881;SDS011;3986;41.884;23.466;2022-10-22T17:41:04;212.90;;;184.55;;
7881;SDS011;3986;41.884;23.466;2022-10-22T17:43:31;185.47;;;165.17;;
7881;SDS011;3986;41.884;23.466;2022-10-22T17:46:02;236.77;;;209.80;;
7881;SDS011;3986;41.884;23.466;2022-10-22T17:48:30;169.53;;;152.20;;
7881;SDS011;3986;41.884;23.466;2022-10-22T17:50:57;186.27;;;162.63;;
7881;SDS011;3986;41.884;23.466;2022-10-22T17:53:24;186.43;;;166.47;;
7881;SDS011;3986;41.884;23.466;2022-10-22T17:55:57;187.87;;;165.60;;
7881;SDS011;3986;41.884;23.466;2022-10-22T17:58:26;177.10;;;158.43;;
7881;SDS011;3986;41.884;23.466;2022-10-22T18:00:54;176.63;;;147.20;;
7881;SDS011;3986;41.884;23.466;2022-10-22T18:03:21;158.80;;;142.13;;
7881;SDS011;3986;41.884;23.466;2022-10-22T18:05:48;157.23;;;133.50;;
7881;SDS011;3986;41.884;23.466;2022-10-22T18:08:15;189.03;;;140.67;;
7881;SDS011;3986;41.884;23.466;2022-10-22T18:10:41;186.80;;;160.43;;
7881;SDS011;3986;41.884;23.466;2022-10-22T18:13:08;183.63;;;163.57;;
7881;SDS011;3986;41.884;23.466;2022-10-22T18:15:36;172.83;;;154.63;;
7881;SDS011;3986;41.884;23.466;2022-10-22T18:18:03;154.07;;;137.90;;
7881;SDS011;3986;41.884;23.466;2022-10-22T18:20:31;198.07;;;120.83;;
7881;SDS011;3986;41.884;23.466;2022-10-22T18:22:58;106.17;;;85.13;;
7881;SDS011;3986;41.884;23.466;2022-10-22T18:25:24;96.87;;;84.90;;
7881;SDS011;3986;41.884;23.466;2022-10-22T18:27:51;110.37;;;91.93;;
7881;SDS011;3986;41.884;23.466;2022-10-22T18:30:18;108.97;;;95.17;;
7881;SDS011;3986;41.884;23.466;2022-10-22T18:32:46;117.67;;;102.07;;
7881;SDS011;3986;41.884;23.466;2022-10-22T18:35:15;140.57;;;109.10;;
7881;SDS011;3986;41.884;23.466;2022-10-22T18:37:42;111.07;;;95.57;;
7881;SDS011;3986;41.884;23.466;2022-10-22T18:40:09;95.80;;;85.80;;
7881;SDS011;3986;41.884;23.466;2022-10-22T18:42:36;117.47;;;87.10;;
7881;SDS011;3986;41.884;23.466;2022-10-22T18:45:04;132.10;;;102.10;;
7881;SDS011;3986;41.884;23.466;2022-10-22T18:47:31;145.00;;;110.67;;
7881;SDS011;3986;41.884;23.466;2022-10-22T18:49:59;148.77;;;98.67;;
7881;SDS011;3986;41.884;23.466;2022-10-22T18:52:26;114.13;;;97.43;;
7881;SDS011;3986;41.884;23.466;2022-10-22T18:54:53;117.57;;;104.63;;
7881;SDS011;3986;41.884;23.466;2022-10-22T18:57:20;144.53;;;93.00;;
7881;SDS011;3986;41.884;23.466;2022-10-22T18:59:46;110.43;;;91.53;;
7881;SDS011;3986;41.884;23.466;2022-10-22T19:02:13;133.50;;;102.40;;
7881;SDS011;3986;41.884;23.466;2022-10-22T19:04:41;163.83;;;113.57;;
7881;SDS011;3986;41.884;23.466;2022-10-22T19:07:10;112.67;;;90.57;;
7881;SDS011;3986;41.884;23.466;2022-10-22T19:09:38;89.40;;;70.10;;
7881;SDS011;3986;41.884;23.466;2022-10-22T19:12:05;166.30;;;70.17;;
7881;SDS011;3986;41.884;23.466;2022-10-22T19:14:33;101.87;;;71.13;;
7881;SDS011;3986;41.884;23.466;2022-10-22T19:17:00;107.43;;;82.77;;
7881;SDS011;3986;41.884;23.466;2022-10-22T19:19:27;125.80;;;91.70;;
7881;SDS011;3986;41.884;23.466;2022-10-22T19:21:54;125.00;;;85.87;;
7881;SDS011;3986;41.884;23.466;2022-10-22T19:24:25;109.47;;;83.40;;
7881;SDS011;3986;41.884;23.466;2022-10-22T19:26:52;137.43;;;84.40;;
7881;SDS011;3986;41.884;23.466;2022-10-22T19:29:19;112.93;;;77.70;;
7881;SDS011;3986;41.884;23.466;2022-10-22T19:31:46;170.23;;;83.70;;
7881;SDS011;3986;41.884;23.466;2022-10-22T19:34:15;98.97;;;76.57;;
7881;SDS011;3986;41.884;23.466;2022-10-22T19:36:41;79.77;;;63.87;;
7881;SDS011;3986;41.884;23.466;2022-10-22T19:39:08;73.00;;;63.20;;
7881;SDS011;3986;41.884;23.466;2022-10-22T19:41:37;91.90;;;65.43;;
7881;SDS011;3986;41.884;23.466;2022-10-22T19:44:04;90.03;;;66.63;;
7881;SDS011;3986;41.884;23.466;2022-10-22T19:46:31;86.50;;;62.33;;
7881;SDS011;3986;41.884;23.466;2022-10-22T19:48:58;96.90;;;60.43;;
7881;SDS011;3986;41.884;23.466;2022-10-22T19:51:25;92.63;;;59.63;;
7881;SDS011;3986;41.884;23.466;2022-10-22T19:53:58;76.47;;;62.90;;
7881;SDS011;3986;41.884;23.466;2022-10-22T19:56:26;79.10;;;68.77;;
7881;SDS011;3986;41.884;23.466;2022-10-22T19:58:54;103.20;;;70.63;;
7881;SDS011;3986;41.884;23.466;2022-10-22T20:01:22;85.83;;;69.07;;
7881;SDS011;3986;41.884;23.466;2022-10-22T20:03:49;105.60;;;71.23;;
7881;SDS011;3986;41.884;23.466;2022-10-22T20:06:16;87.87;;;67.13;;
7881;SDS011;3986;41.884;23.466;2022-10-22T20:08:44;71.60;;;62.50;;
7881;SDS011;3986;41.884;23.466;2022-10-22T20:11:14;103.73;;;62.90;;
7881;SDS011;3986;41.884;23.466;2022-10-22T20:13:43;90.43;;;71.97;;
7881;SDS011;3986;41.884;23.466;2022-10-22T20:16:11;105.97;;;77.43;;
7881;SDS011;3986;41.884;23.466;2022-10-22T20:18:40;90.90;;;78.53;;
7881;SDS011;3986;41.884;23.466;2022-10-22T20:21:07;89.23;;;74.43;;
7881;SDS011;3986;41.884;23.466;2022-10-22T20:23:38;86.53;;;73.83;;
7881;SDS011;3986;41.884;23.466;2022-10-22T20:26:04;76.43;;;68.57;;
7881;SDS011;3986;41.884;23.466;2022-10-22T20:28:31;82.93;;;69.67;;
7881;SDS011;3986;41.884;23.466;2022-10-22T20:30:58;108.53;;;77.67;;
7881;SDS011;3986;41.884;23.466;2022-10-22T20:33:27;90.40;;;70.47;;
7881;SDS011;3986;41.884;23.466;2022-10-22T20:35:57;85.80;;;72.03;;
7881;SDS011;3986;41.884;23.466;2022-10-22T20:38:24;93.40;;;73.60;;
7881;SDS011;3986;41.884;23.466;2022-10-22T20:40:57;96.10;;;74.37;;
7881;SDS011;3986;41.884;23.466;2022-10-22T20:43:25;95.67;;;72.30;;
7881;SDS011;3986;41.884;23.466;2022-10-22T20:45:51;83.67;;;69.33;;
7881;SDS011;3986;41.884;23.466;2022-10-22T20:48:18;84.27;;;66.00;;
7881;SDS011;3986;41.884;23.466;2022-10-22T20:50:46;75.97;;;67.23;;
7881;SDS011;3986;41.884;23.466;2022-10-22T20:53:13;72.80;;;64.90;;
7881;SDS011;3986;41.884;23.466;2022-10-22T20:55:40;65.87;;;59.20;;
7881;SDS011;3986;41.884;23.466;2022-10-22T20:58:07;67.80;;;57.03;;
7881;SDS011;3986;41.884;23.466;2022-10-22T21:00:33;74.13;;;61.03;;
7881;SDS011;3986;41.884;23.466;2022-10-22T21:03:03;69.23;;;58.00;;
7881;SDS011;3986;41.884;23.466;2022-10-22T21:05:30;65.90;;;58.73;;
7881;SDS011;3986;41.884;23.466;2022-10-22T21:07:58;81.40;;;66.33;;
7881;SDS011;3986;41.884;23.466;2022-10-22T21:10:26;80.40;;;59.27;;
7881;SDS011;3986;41.884;23.466;2022-10-22T21:12:53;73.47;;;60.33;;
7881;SDS011;3986;41.884;23.466;2022-10-22T21:15:20;67.17;;;57.83;;
7881;SDS011;3986;41.884;23.466;2022-10-22T21:17:47;68.37;;;58.23;;
7881;SDS011;3986;41.884;23.466;2022-10-22T21:20:13;64.47;;;56.17;;
7881;SDS011;3986;41.884;23.466;2022-10-22T21:22:40;64.30;;;57.30;;
7881;SDS011;3986;41.884;23.466;2022-10-22T21:25:08;87.47;;;60.83;;
7881;SDS011;3986;41.884;23.466;2022-10-22T21:27:35;75.50;;;57.73;;
7881;SDS011;3986;41.884;23.466;2022-10-22T21:30:02;82.50;;;61.17;;
7881;SDS011;3986;41.884;23.466;2022-10-22T21:32:29;86.73;;;71.10;;
7881;SDS011;3986;41.884;23.466;2022-10-22T21:34:56;86.80;;;65.63;;
7881;SDS011;3986;41.884;23.466;2022-10-22T21:37:23;79.70;;;66.07;;
7881;SDS011;3986;41.884;23.466;2022-10-22T21:39:50;70.67;;;62.63;;
7881;SDS011;3986;41.884;23.466;2022-10-22T21:42:18;173.50;;;72.13;;
7881;SDS011;3986;41.884;23.466;2022-10-22T21:44:44;67.50;;;60.37;;
7881;SDS011;3986;41.884;23.466;2022-10-22T21:47:11;74.13;;;61.93;;
7881;SDS011;3986;41.884;23.466;2022-10-22T21:49:38;84.70;;;69.33;;
7881;SDS011;3986;41.884;23.466;2022-10-22T21:52:05;77.20;;;61.23;;
7881;SDS011;3986;41.884;23.466;2022-10-22T21:54:32;76.63;;;59.43;;
7881;SDS011;3986;41.884;23.466;2022-10-22T21:56:59;78.30;;;62.10;;
7881;SDS011;3986;41.884;23.466;2022-10-22T21:59:28;88.10;;;60.93;;
7881;SDS011;3986;41.884;23.466;2022-10-22T22:01:56;75.13;;;60.00;;
7881;SDS011;3986;41.884;23.466;2022-10-22T22:04:23;62.07;;;45.80;;
7881;SDS011;3986;41.884;23.466;2022-10-22T22:06:50;43.00;;;35.87;;
7881;SDS011;3986;41.884;23.466;2022-10-22T22:09:16;44.47;;;38.30;;
7881;SDS011;3986;41.884;23.466;2022-10-22T22:11:43;41.10;;;37.10;;
7881;SDS011;3986;41.884;23.466;2022-10-22T22:14:11;52.33;;;37.73;;
7881;SDS011;3986;41.884;23.466;2022-10-22T22:16:39;41.43;;;29.13;;
7881;SDS011;3986;41.884;23.466;2022-10-22T22:19:07;36.60;;;25.27;;
7881;SDS011;3986;41.884;23.466;2022-10-22T22:21:35;36.67;;;24.73;;
7881;SDS011;3986;41.884;23.466;2022-10-22T22:24:04;32.83;;;24.13;;
7881;SDS011;3986;41.884;23.466;2022-10-22T22:26:32;115.90;;;29.07;;
7881;SDS011;3986;41.884;23.466;2022-10-22T22:28:59;38.47;;;25.30;;
7881;SDS011;3986;41.884;23.466;2022-10-22T22:31:27;35.93;;;23.63;;
7881;SDS011;3986;41.884;23.466;2022-10-22T22:33:59;48.27;;;28.63;;
7881;SDS011;3986;41.884;23.466;2022-10-22T22:36:30;45.50;;;32.00;;
7881;SDS011;3986;41.884;23.466;2022-10-22T22:38:58;114.90;;;34.37;;
7881;SDS011;3986;41.884;23.466;2022-10-22T22:41:25;51.77;;;32.73;;
7881;SDS011;3986;41.884;23.466;2022-10-22T22:43:52;39.17;;;30.50;;
7881;SDS011;3986;41.884;23.466;2022-10-22T22:46:19;38.87;;;31.60;;
7881;SDS011;3986;41.884;23.466;2022-10-22T22:48:46;31.63;;;28.23;;
7881;SDS011;3986;41.884;23.466;2022-10-22T22:51:14;36.87;;;29.33;;
7881;SDS011;3986;41.884;23.466;2022-10-22T22:53:42;38.07;;;29.77;;
7881;SDS011;3986;41.884;23.466;2022-10-22T22:56:09;40.67;;;32.70;;
7881;SDS011;3986;41.884;23.466;2022-10-22T22:58:38;49.60;;;35.40;;
7881;SDS011;3986;41.884;23.466;2022-10-22T23:01:09;128.87;;;41.93;;
7881;SDS011;3986;41.884;23.466;2022-10-22T23:03:38;43.53;;;32.50;;
7881;SDS011;3986;41.884;23.466;2022-10-22T23:06:05;51.47;;;34.13;;
7881;SDS011;3986;41.884;23.466;2022-10-22T23:08:33;43.53;;;32.93;;
7881;SDS011;3986;41.884;23.466;2022-10-22T23:11:01;43.97;;;33.37;;
7881;SDS011;3986;41.884;23.466;2022-10-22T23:13:29;98.40;;;41.20;;
7881;SDS011;3986;41.884;23.466;2022-10-22T23:15:55;47.23;;;37.50;;
7881;SDS011;3986;41.884;23.466;2022-10-22T23:18:22;39.07;;;34.80;;
7881;SDS011;3986;41.884;23.466;2022-10-22T23:20:49;43.73;;;38.63;;
7881;SDS011;3986;41.884;23.466;2022-10-22T23:23:16;39.90;;;35.53;;
7881;SDS011;3986;41.884;23.466;2022-10-22T23:25:44;39.97;;;35.77;;
7881;SDS011;3986;41.884;23.466;2022-10-22T23:28:11;51.10;;;36.87;;
7881;SDS011;3986;41.884;23.466;2022-10-22T23:30:40;51.83;;;39.57;;
7881;SDS011;3986;41.884;23.466;2022-10-22T23:33:08;64.37;;;40.43;;
7881;SDS011;3986;41.884;23.466;2022-10-22T23:35:37;47.50;;;38.93;;
7881;SDS011;3986;41.884;23.466;2022-10-22T23:38:05;46.07;;;38.97;;
7881;SDS011;3986;41.884;23.466;2022-10-22T23:40:31;52.30;;;40.17;;
7881;SDS011;3986;41.884;23.466;2022-10-22T23:43:00;58.63;;;45.37;;
7881;SDS011;3986;41.884;23.466;2022-10-22T23:45:26;56.47;;;49.40;;
7881;SDS011;3986;41.884;23.466;2022-10-22T23:47:53;55.93;;;45.43;;
7881;SDS011;3986;41.884;23.466;2022-10-22T23:50:20;47.43;;;42.50;;
7881;SDS011;3986;41.884;23.466;2022-10-22T23:52:47;45.90;;;41.50;;
7881;SDS011;3986;41.884;23.466;2022-10-22T23:55:16;48.60;;;43.87;;
7881;SDS011;3986;41.884;23.466;2022-10-22T23:57:43;61.30;;;45.33;;
